sensor_id;sensor_type;location;lat;lon;timestamp;temperature;humidity
7708;DHT22;3896;48.758;8.888;2022-10-30T00:00:28;14.40;99.90
7708;DHT22;3896;48.758;8.888;2022-10-30T00:02:54;14.40;99.90
7708;DHT22;3896;48.758;8.888;2022-10-30T00:05:20;14.40;99.90
7708;DHT22;3896;48.758;8.888;2022-10-30T00:07:46;14.40;99.90
7708;DHT22;3896;48.758;8.888;2022-10-30T00:10:12;14.40;99.90
7708;DHT22;3896;48.758;8.888;2022-10-30T00:12:38;14.40;99.90
7708;DHT22;3896;48.758;8.888;2022-10-30T00:15:04;14.30;99.90
7708;DHT22;3896;48.758;8.888;2022-10-30T00:17:30;14.30;99.90
7708;DHT22;3896;48.758;8.888;2022-10-30T00:19:55;14.30;99.90
7708;DHT22;3896;48.758;8.888;2022-10-30T00:22:21;14.30;99.90
7708;DHT22;3896;48.758;8.888;2022-10-30T00:24:47;14.30;99.90
7708;DHT22;3896;48.758;8.888;2022-10-30T00:27:12;14.30;99.90
7708;DHT22;3896;48.758;8.888;2022-10-30T00:29:38;14.30;99.90
7708;DHT22;3896;48.758;8.888;2022-10-30T00:32:03;14.30;99.90
7708;DHT22;3896;48.758;8.888;2022-10-30T00:34:29;14.20;99.90
7708;DHT22;3896;48.758;8.888;2022-10-30T00:36:55;14.30;99.90
7708;DHT22;3896;48.758;8.888;2022-10-30T00:39:20;14.20;99.90
7708;DHT22;3896;48.758;8.888;2022-10-30T00:41:46;14.20;99.90
7708;DHT22;3896;48.758;8.888;2022-10-30T00:47:00;14.10;99.90
7708;DHT22;3896;48.758;8.888;2022-10-30T00:49:38;14.10;99.90
7708;DHT22;3896;48.758;8.888;2022-10-30T00:52:08;14.10;99.90
7708;DHT22;3896;48.758;8.888;2022-10-30T00:54:35;14.10;99.90
7708;DHT22;3896;48.758;8.888;2022-10-30T00:57:02;14.10;99.90
7708;DHT22;3896;48.758;8.888;2022-10-30T00:59:32;14.10;99.90
7708;DHT22;3896;48.758;8.888;2022-10-30T01:01:58;14.10;99.90
7708;DHT22;3896;48.758;8.888;2022-10-30T01:04:25;14.10;99.90
7708;DHT22;3896;48.758;8.888;2022-10-30T01:06:52;14.00;99.90
7708;DHT22;3896;48.758;8.888;2022-10-30T01:09:21;14.00;99.90
7708;DHT22;3896;48.758;8.888;2022-10-30T01:11:47;14.00;99.90
7708;DHT22;3896;48.758;8.888;2022-10-30T01:14:15;14.00;99.90
7708;DHT22;3896;48.758;8.888;2022-10-30T01:19:30;13.90;99.90
7708;DHT22;3896;48.758;8.888;2022-10-30T01:22:17;13.90;99.90
7708;DHT22;3896;48.758;8.888;2022-10-30T01:37:56;13.80;99.90
7708;DHT22;3896;48.758;8.888;2022-10-30T01:40:26;13.80;99.90
7708;DHT22;3896;48.758;8.888;2022-10-30T01:42:56;13.80;99.90
7708;DHT22;3896;48.758;8.888;2022-10-30T01:48:03;13.80;99.90
7708;DHT22;3896;48.758;8.888;2022-10-30T01:50:58;13.80;99.90
7708;DHT22;3896;48.758;8.888;2022-10-30T01:59:02;13.70;99.90
7708;DHT22;3896;48.758;8.888;2022-10-30T02:01:31;13.70;99.90
7708;DHT22;3896;48.758;8.888;2022-10-30T02:04:00;13.70;99.90
7708;DHT22;3896;48.758;8.888;2022-10-30T02:06:26;13.70;99.90
7708;DHT22;3896;48.758;8.888;2022-10-30T02:08:55;13.70;99.90
7708;DHT22;3896;48.758;8.888;2022-10-30T02:11:22;13.70;99.90
7708;DHT22;3896;48.758;8.888;2022-10-30T02:13:52;13.70;99.90
7708;DHT22;3896;48.758;8.888;2022-10-30T02:16:18;13.70;99.90
7708;DHT22;3896;48.758;8.888;2022-10-30T02:18:44;13.70;99.90
7708;DHT22;3896;48.758;8.888;2022-10-30T02:21:09;13.70;99.90
7708;DHT22;3896;48.758;8.888;2022-10-30T02:23:35;13.70;99.90
7708;DHT22;3896;48.758;8.888;2022-10-30T02:26:01;13.60;99.90
7708;DHT22;3896;48.758;8.888;2022-10-30T02:28:27;13.60;99.90
7708;DHT22;3896;48.758;8.888;2022-10-30T02:30:53;13.60;99.90
7708;DHT22;3896;48.758;8.888;2022-10-30T02:33:18;13.60;99.90
7708;DHT22;3896;48.758;8.888;2022-10-30T02:35:44;13.60;99.90
7708;DHT22;3896;48.758;8.888;2022-10-30T02:38:10;13.60;99.90
7708;DHT22;3896;48.758;8.888;2022-10-30T02:40:35;13.60;99.90
7708;DHT22;3896;48.758;8.888;2022-10-30T02:43:01;13.50;99.90
7708;DHT22;3896;48.758;8.888;2022-10-30T02:45:26;13.50;99.90
7708;DHT22;3896;48.758;8.888;2022-10-30T02:47:52;13.50;99.90
7708;DHT22;3896;48.758;8.888;2022-10-30T02:50:18;13.50;99.90
7708;DHT22;3896;48.758;8.888;2022-10-30T02:52:44;13.50;99.90
7708;DHT22;3896;48.758;8.888;2022-10-30T02:55:09;13.40;99.90
7708;DHT22;3896;48.758;8.888;2022-10-30T02:57:35;13.40;99.90
7708;DHT22;3896;48.758;8.888;2022-10-30T03:00:00;13.40;99.90
7708;DHT22;3896;48.758;8.888;2022-10-30T03:02:26;13.40;99.90
7708;DHT22;3896;48.758;8.888;2022-10-30T03:04:52;13.30;99.90
7708;DHT22;3896;48.758;8.888;2022-10-30T03:07:17;13.30;99.90
7708;DHT22;3896;48.758;8.888;2022-10-30T03:09:43;13.30;99.90
7708;DHT22;3896;48.758;8.888;2022-10-30T03:12:08;13.30;99.90
7708;DHT22;3896;48.758;8.888;2022-10-30T03:14:34;13.20;99.90
7708;DHT22;3896;48.758;8.888;2022-10-30T03:17:00;13.20;99.90
7708;DHT22;3896;48.758;8.888;2022-10-30T03:19:25;13.20;99.90
7708;DHT22;3896;48.758;8.888;2022-10-30T03:21:52;13.20;99.90
7708;DHT22;3896;48.758;8.888;2022-10-30T03:24:18;13.10;99.90
7708;DHT22;3896;48.758;8.888;2022-10-30T03:26:44;13.10;99.90
7708;DHT22;3896;48.758;8.888;2022-10-30T03:29:09;13.10;99.90
7708;DHT22;3896;48.758;8.888;2022-10-30T03:31:35;13.10;99.90
7708;DHT22;3896;48.758;8.888;2022-10-30T03:34:01;13.10;99.90
7708;DHT22;3896;48.758;8.888;2022-10-30T03:36:26;13.00;99.90
7708;DHT22;3896;48.758;8.888;2022-10-30T03:38:52;13.00;99.90
7708;DHT22;3896;48.758;8.888;2022-10-30T03:41:17;13.00;99.90
7708;DHT22;3896;48.758;8.888;2022-10-30T03:43:43;13.00;99.90
7708;DHT22;3896;48.758;8.888;2022-10-30T03:46:09;12.90;99.90
7708;DHT22;3896;48.758;8.888;2022-10-30T03:48:35;12.90;99.90
7708;DHT22;3896;48.758;8.888;2022-10-30T03:51:01;12.90;99.90
7708;DHT22;3896;48.758;8.888;2022-10-30T03:53:28;12.80;99.90
7708;DHT22;3896;48.758;8.888;2022-10-30T03:55:58;12.80;99.90
7708;DHT22;3896;48.758;8.888;2022-10-30T03:58:25;12.80;99.90
7708;DHT22;3896;48.758;8.888;2022-10-30T04:00:51;12.80;99.90
7708;DHT22;3896;48.758;8.888;2022-10-30T04:03:16;12.70;99.90
7708;DHT22;3896;48.758;8.888;2022-10-30T04:05:42;12.70;99.90
7708;DHT22;3896;48.758;8.888;2022-10-30T04:08:11;12.70;99.90
7708;DHT22;3896;48.758;8.888;2022-10-30T04:10:42;12.60;99.90
7708;DHT22;3896;48.758;8.888;2022-10-30T04:13:09;12.60;99.90
7708;DHT22;3896;48.758;8.888;2022-10-30T04:15:35;12.60;99.90
7708;DHT22;3896;48.758;8.888;2022-10-30T04:18:01;12.50;99.90
7708;DHT22;3896;48.758;8.888;2022-10-30T04:20:27;12.50;99.90
7708;DHT22;3896;48.758;8.888;2022-10-30T04:23:04;12.50;99.90
7708;DHT22;3896;48.758;8.888;2022-10-30T04:25:30;12.50;99.90
7708;DHT22;3896;48.758;8.888;2022-10-30T04:27:57;12.40;99.90
7708;DHT22;3896;48.758;8.888;2022-10-30T04:30:23;12.40;99.90
7708;DHT22;3896;48.758;8.888;2022-10-30T04:32:53;12.40;99.90
7708;DHT22;3896;48.758;8.888;2022-10-30T04:35:22;12.30;99.90
7708;DHT22;3896;48.758;8.888;2022-10-30T04:37:59;12.30;99.90
7708;DHT22;3896;48.758;8.888;2022-10-30T04:40:27;12.30;99.90
7708;DHT22;3896;48.758;8.888;2022-10-30T04:42:54;12.30;99.90
7708;DHT22;3896;48.758;8.888;2022-10-30T04:45:20;12.20;99.90
7708;DHT22;3896;48.758;8.888;2022-10-30T04:47:46;12.20;99.90
7708;DHT22;3896;48.758;8.888;2022-10-30T04:50:12;12.20;99.90
7708;DHT22;3896;48.758;8.888;2022-10-30T04:52:38;12.10;99.90
7708;DHT22;3896;48.758;8.888;2022-10-30T04:55:04;12.10;99.90
7708;DHT22;3896;48.758;8.888;2022-10-30T04:57:30;12.10;99.90
7708;DHT22;3896;48.758;8.888;2022-10-30T04:59:57;12.00;99.90
7708;DHT22;3896;48.758;8.888;2022-10-30T05:02:23;12.00;99.90
7708;DHT22;3896;48.758;8.888;2022-10-30T05:04:48;12.00;99.90
7708;DHT22;3896;48.758;8.888;2022-10-30T05:07:14;11.90;99.90
7708;DHT22;3896;48.758;8.888;2022-10-30T05:09:41;11.90;99.90
7708;DHT22;3896;48.758;8.888;2022-10-30T05:12:06;11.90;99.90
7708;DHT22;3896;48.758;8.888;2022-10-30T05:14:32;11.80;99.90
7708;DHT22;3896;48.758;8.888;2022-10-30T05:16:58;11.80;99.90
7708;DHT22;3896;48.758;8.888;2022-10-30T05:19:24;11.80;99.90
7708;DHT22;3896;48.758;8.888;2022-10-30T05:21:50;11.80;99.90
7708;DHT22;3896;48.758;8.888;2022-10-30T05:24:16;11.70;99.90
7708;DHT22;3896;48.758;8.888;2022-10-30T05:29:18;11.70;99.90
7708;DHT22;3896;48.758;8.888;2022-10-30T05:31:44;11.60;99.90
7708;DHT22;3896;48.758;8.888;2022-10-30T05:34:09;11.60;99.90
7708;DHT22;3896;48.758;8.888;2022-10-30T05:36:35;11.60;99.90
7708;DHT22;3896;48.758;8.888;2022-10-30T05:39:00;11.50;99.90
7708;DHT22;3896;48.758;8.888;2022-10-30T05:41:27;11.50;99.90
7708;DHT22;3896;48.758;8.888;2022-10-30T05:43:53;11.50;99.90
7708;DHT22;3896;48.758;8.888;2022-10-30T05:46:19;11.50;99.90
7708;DHT22;3896;48.758;8.888;2022-10-30T05:48:44;11.40;99.90
7708;DHT22;3896;48.758;8.888;2022-10-30T05:51:10;11.40;99.90
7708;DHT22;3896;48.758;8.888;2022-10-30T05:53:35;11.40;99.90
7708;DHT22;3896;48.758;8.888;2022-10-30T05:56:01;11.30;99.90
7708;DHT22;3896;48.758;8.888;2022-10-30T05:58:27;11.30;99.90
7708;DHT22;3896;48.758;8.888;2022-10-30T06:00:52;11.30;99.90
7708;DHT22;3896;48.758;8.888;2022-10-30T06:03:18;11.30;99.90
7708;DHT22;3896;48.758;8.888;2022-10-30T06:05:45;11.20;99.90
7708;DHT22;3896;48.758;8.888;2022-10-30T06:08:11;11.20;99.90
7708;DHT22;3896;48.758;8.888;2022-10-30T06:10:37;11.20;99.90
7708;DHT22;3896;48.758;8.888;2022-10-30T06:13:05;11.20;99.90
7708;DHT22;3896;48.758;8.888;2022-10-30T06:15:31;11.20;99.90
7708;DHT22;3896;48.758;8.888;2022-10-30T06:17:57;11.10;99.90
7708;DHT22;3896;48.758;8.888;2022-10-30T06:20:26;11.10;99.90
7708;DHT22;3896;48.758;8.888;2022-10-30T06:23:01;11.10;99.90
7708;DHT22;3896;48.758;8.888;2022-10-30T06:25:29;11.10;99.90
7708;DHT22;3896;48.758;8.888;2022-10-30T06:27:54;11.20;99.90
7708;DHT22;3896;48.758;8.888;2022-10-30T06:30:21;11.10;99.90
7708;DHT22;3896;48.758;8.888;2022-10-30T06:32:47;11.10;99.90
7708;DHT22;3896;48.758;8.888;2022-10-30T06:35:13;11.10;99.90
7708;DHT22;3896;48.758;8.888;2022-10-30T06:37:45;11.10;99.90
7708;DHT22;3896;48.758;8.888;2022-10-30T06:40:11;11.10;99.90
7708;DHT22;3896;48.758;8.888;2022-10-30T06:42:48;11.10;99.90
7708;DHT22;3896;48.758;8.888;2022-10-30T06:45:15;11.00;99.90
7708;DHT22;3896;48.758;8.888;2022-10-30T06:47:41;11.00;99.90
7708;DHT22;3896;48.758;8.888;2022-10-30T06:50:09;11.00;99.90
7708;DHT22;3896;48.758;8.888;2022-10-30T06:52:35;11.00;99.90
7708;DHT22;3896;48.758;8.888;2022-10-30T06:55:01;11.10;99.90
7708;DHT22;3896;48.758;8.888;2022-10-30T06:57:27;11.10;99.90
7708;DHT22;3896;48.758;8.888;2022-10-30T06:59:52;11.10;99.90
7708;DHT22;3896;48.758;8.888;2022-10-30T07:02:18;11.10;99.90
7708;DHT22;3896;48.758;8.888;2022-10-30T07:04:44;11.10;99.90
7708;DHT22;3896;48.758;8.888;2022-10-30T07:07:13;11.10;99.90
7708;DHT22;3896;48.758;8.888;2022-10-30T07:09:39;11.10;99.90
7708;DHT22;3896;48.758;8.888;2022-10-30T07:12:06;11.20;99.90
7708;DHT22;3896;48.758;8.888;2022-10-30T07:14:31;11.20;99.90
7708;DHT22;3896;48.758;8.888;2022-10-30T07:16:57;11.20;99.90
7708;DHT22;3896;48.758;8.888;2022-10-30T07:19:23;11.20;99.90
7708;DHT22;3896;48.758;8.888;2022-10-30T07:21:48;11.20;99.90
7708;DHT22;3896;48.758;8.888;2022-10-30T07:24:14;11.30;99.90
7708;DHT22;3896;48.758;8.888;2022-10-30T07:26:40;11.30;99.90
7708;DHT22;3896;48.758;8.888;2022-10-30T07:29:06;11.30;99.90
7708;DHT22;3896;48.758;8.888;2022-10-30T07:31:32;11.40;99.90
7708;DHT22;3896;48.758;8.888;2022-10-30T07:33:57;11.40;99.90
7708;DHT22;3896;48.758;8.888;2022-10-30T07:36:23;11.40;99.90
7708;DHT22;3896;48.758;8.888;2022-10-30T07:38:52;11.40;99.90
7708;DHT22;3896;48.758;8.888;2022-10-30T07:41:19;11.50;99.90
7708;DHT22;3896;48.758;8.888;2022-10-30T07:43:44;11.50;99.90
7708;DHT22;3896;48.758;8.888;2022-10-30T07:46:10;11.60;99.90
7708;DHT22;3896;48.758;8.888;2022-10-30T07:48:36;11.70;99.90
7708;DHT22;3896;48.758;8.888;2022-10-30T07:51:02;11.70;99.90
7708;DHT22;3896;48.758;8.888;2022-10-30T07:53:27;11.80;99.90
7708;DHT22;3896;48.758;8.888;2022-10-30T07:55:54;11.90;99.90
7708;DHT22;3896;48.758;8.888;2022-10-30T07:58:20;11.90;99.90
7708;DHT22;3896;48.758;8.888;2022-10-30T08:00:46;12.00;99.90
7708;DHT22;3896;48.758;8.888;2022-10-30T08:03:12;12.10;99.90
7708;DHT22;3896;48.758;8.888;2022-10-30T08:05:38;12.20;99.90
7708;DHT22;3896;48.758;8.888;2022-10-30T08:08:04;12.20;99.90
7708;DHT22;3896;48.758;8.888;2022-10-30T08:10:29;12.40;99.90
7708;DHT22;3896;48.758;8.888;2022-10-30T08:12:55;12.40;99.90
7708;DHT22;3896;48.758;8.888;2022-10-30T08:15:21;12.50;99.90
7708;DHT22;3896;48.758;8.888;2022-10-30T08:17:51;12.60;99.90
7708;DHT22;3896;48.758;8.888;2022-10-30T08:20:19;12.70;99.90
7708;DHT22;3896;48.758;8.888;2022-10-30T08:22:49;12.80;99.90
7708;DHT22;3896;48.758;8.888;2022-10-30T08:25:17;12.90;99.90
7708;DHT22;3896;48.758;8.888;2022-10-30T08:28:00;13.00;99.90
7708;DHT22;3896;48.758;8.888;2022-10-30T08:30:28;13.10;99.90
7708;DHT22;3896;48.758;8.888;2022-10-30T08:32:58;13.20;99.90
7708;DHT22;3896;48.758;8.888;2022-10-30T08:35:24;13.30;99.90
7708;DHT22;3896;48.758;8.888;2022-10-30T08:37:54;13.40;99.90
7708;DHT22;3896;48.758;8.888;2022-10-30T08:40:20;13.50;99.90
7708;DHT22;3896;48.758;8.888;2022-10-30T08:42:53;13.70;99.90
7708;DHT22;3896;48.758;8.888;2022-10-30T08:45:20;13.80;99.90
7708;DHT22;3896;48.758;8.888;2022-10-30T08:47:46;13.90;99.90
7708;DHT22;3896;48.758;8.888;2022-10-30T08:50:11;14.00;99.90
7708;DHT22;3896;48.758;8.888;2022-10-30T08:52:37;14.20;99.90
7708;DHT22;3896;48.758;8.888;2022-10-30T08:55:03;14.30;99.90
7708;DHT22;3896;48.758;8.888;2022-10-30T08:57:36;14.40;99.90
7708;DHT22;3896;48.758;8.888;2022-10-30T09:00:04;14.50;99.90
7708;DHT22;3896;48.758;8.888;2022-10-30T09:02:30;14.70;99.90
7708;DHT22;3896;48.758;8.888;2022-10-30T09:04:56;14.80;99.90
7708;DHT22;3896;48.758;8.888;2022-10-30T09:07:21;14.90;99.90
7708;DHT22;3896;48.758;8.888;2022-10-30T09:09:47;15.00;99.90
7708;DHT22;3896;48.758;8.888;2022-10-30T09:12:12;15.10;99.90
7708;DHT22;3896;48.758;8.888;2022-10-30T09:14:38;15.30;99.90
7708;DHT22;3896;48.758;8.888;2022-10-30T09:17:04;15.40;99.90
7708;DHT22;3896;48.758;8.888;2022-10-30T09:19:29;15.50;99.90
7708;DHT22;3896;48.758;8.888;2022-10-30T09:21:55;15.70;99.90
7708;DHT22;3896;48.758;8.888;2022-10-30T09:24:20;15.70;99.90
7708;DHT22;3896;48.758;8.888;2022-10-30T09:26:46;15.90;99.90
7708;DHT22;3896;48.758;8.888;2022-10-30T09:29:12;15.90;99.90
7708;DHT22;3896;48.758;8.888;2022-10-30T09:31:37;16.10;99.90
7708;DHT22;3896;48.758;8.888;2022-10-30T09:34:03;16.20;99.90
7708;DHT22;3896;48.758;8.888;2022-10-30T09:36:29;16.30;99.90
7708;DHT22;3896;48.758;8.888;2022-10-30T09:38:56;16.50;99.90
7708;DHT22;3896;48.758;8.888;2022-10-30T09:41:38;16.60;99.90
7708;DHT22;3896;48.758;8.888;2022-10-30T09:45:07;16.80;99.90
7708;DHT22;3896;48.758;8.888;2022-10-30T09:52:38;17.40;99.90
7708;DHT22;3896;48.758;8.888;2022-10-30T10:03:33;18.10;99.90
7708;DHT22;3896;48.758;8.888;2022-10-30T10:06:01;18.30;99.90
7708;DHT22;3896;48.758;8.888;2022-10-30T10:08:40;18.50;99.90
7708;DHT22;3896;48.758;8.888;2022-10-30T10:11:16;18.70;99.90
7708;DHT22;3896;48.758;8.888;2022-10-30T10:14:07;18.90;99.90
7708;DHT22;3896;48.758;8.888;2022-10-30T10:16:38;19.10;99.90
7708;DHT22;3896;48.758;8.888;2022-10-30T10:21:32;19.50;99.90
7708;DHT22;3896;48.758;8.888;2022-10-30T10:24:02;19.70;99.90
7708;DHT22;3896;48.758;8.888;2022-10-30T10:27:17;19.90;99.90
7708;DHT22;3896;48.758;8.888;2022-10-30T10:30:02;20.10;99.90
7708;DHT22;3896;48.758;8.888;2022-10-30T10:32:55;20.30;98.60
7708;DHT22;3896;48.758;8.888;2022-10-30T10:41:29;20.90;98.40
7708;DHT22;3896;48.758;8.888;2022-10-30T10:47:07;21.40;95.80
7708;DHT22;3896;48.758;8.888;2022-10-30T10:50:20;21.60;94.60
7708;DHT22;3896;48.758;8.888;2022-10-30T10:55:36;22.10;93.30
7708;DHT22;3896;48.758;8.888;2022-10-30T10:58:13;22.30;92.00
7708;DHT22;3896;48.758;8.888;2022-10-30T11:00:39;22.50;90.90
7708;DHT22;3896;48.758;8.888;2022-10-30T11:08:26;23.10;86.70
7708;DHT22;3896;48.758;8.888;2022-10-30T11:10:59;23.20;86.70
7708;DHT22;3896;48.758;8.888;2022-10-30T11:13:38;23.40;85.40
7708;DHT22;3896;48.758;8.888;2022-10-30T11:18:43;23.80;83.20
7708;DHT22;3896;48.758;8.888;2022-10-30T11:21:18;23.90;81.00
7708;DHT22;3896;48.758;8.888;2022-10-30T11:23:47;24.00;80.20
7708;DHT22;3896;48.758;8.888;2022-10-30T11:28:49;24.40;78.50
7708;DHT22;3896;48.758;8.888;2022-10-30T11:31:29;24.50;77.50
7708;DHT22;3896;48.758;8.888;2022-10-30T11:36:42;24.70;76.70
7708;DHT22;3896;48.758;8.888;2022-10-30T11:39:10;24.90;75.80
7708;DHT22;3896;48.758;8.888;2022-10-30T11:41:37;25.00;74.60
7708;DHT22;3896;48.758;8.888;2022-10-30T11:44:04;25.10;72.50
7708;DHT22;3896;48.758;8.888;2022-10-30T11:46:32;25.20;71.40
7708;DHT22;3896;48.758;8.888;2022-10-30T11:49:00;25.30;71.10
7708;DHT22;3896;48.758;8.888;2022-10-30T11:51:37;25.40;71.30
7708;DHT22;3896;48.758;8.888;2022-10-30T11:54:04;25.50;69.40
7708;DHT22;3896;48.758;8.888;2022-10-30T11:56:33;25.60;68.90
7708;DHT22;3896;48.758;8.888;2022-10-30T11:59:01;25.70;68.30
7708;DHT22;3896;48.758;8.888;2022-10-30T12:01:30;25.80;70.00
7708;DHT22;3896;48.758;8.888;2022-10-30T12:03:58;25.80;71.60
7708;DHT22;3896;48.758;8.888;2022-10-30T12:06:36;25.90;70.10
7708;DHT22;3896;48.758;8.888;2022-10-30T12:09:20;26.00;70.80
7708;DHT22;3896;48.758;8.888;2022-10-30T12:11:46;26.00;68.40
7708;DHT22;3896;48.758;8.888;2022-10-30T12:14:23;26.10;67.80
7708;DHT22;3896;48.758;8.888;2022-10-30T12:16:53;26.20;67.40
7708;DHT22;3896;48.758;8.888;2022-10-30T12:19:21;26.30;66.20
7708;DHT22;3896;48.758;8.888;2022-10-30T12:21:50;26.30;65.60
7708;DHT22;3896;48.758;8.888;2022-10-30T12:26:53;26.40;64.30
7708;DHT22;3896;48.758;8.888;2022-10-30T12:29:22;26.50;62.50
7708;DHT22;3896;48.758;8.888;2022-10-30T12:31:52;26.60;62.60
7708;DHT22;3896;48.758;8.888;2022-10-30T12:34:39;26.60;61.70
7708;DHT22;3896;48.758;8.888;2022-10-30T12:37:23;26.70;62.60
7708;DHT22;3896;48.758;8.888;2022-10-30T12:40:04;26.80;63.20
7708;DHT22;3896;48.758;8.888;2022-10-30T12:42:35;26.90;62.10
7708;DHT22;3896;48.758;8.888;2022-10-30T12:45:23;27.00;61.00
7708;DHT22;3896;48.758;8.888;2022-10-30T12:48:02;27.00;60.10
7708;DHT22;3896;48.758;8.888;2022-10-30T12:50:48;27.20;57.70
7708;DHT22;3896;48.758;8.888;2022-10-30T12:53:31;27.20;58.10
7708;DHT22;3896;48.758;8.888;2022-10-30T12:56:08;27.30;58.60
7708;DHT22;3896;48.758;8.888;2022-10-30T12:59:19;27.30;58.90
7708;DHT22;3896;48.758;8.888;2022-10-30T13:04:18;27.50;59.30
7708;DHT22;3896;48.758;8.888;2022-10-30T13:07:04;27.60;59.40
7708;DHT22;3896;48.758;8.888;2022-10-30T13:10:03;27.60;57.80
7708;DHT22;3896;48.758;8.888;2022-10-30T13:12:37;27.70;55.90
7708;DHT22;3896;48.758;8.888;2022-10-30T13:15:24;27.90;54.60
7708;DHT22;3896;48.758;8.888;2022-10-30T13:17:51;27.90;55.00
7708;DHT22;3896;48.758;8.888;2022-10-30T13:20:17;28.00;55.50
7708;DHT22;3896;48.758;8.888;2022-10-30T13:22:50;28.10;55.50
7708;DHT22;3896;48.758;8.888;2022-10-30T13:30:20;28.40;53.80
7708;DHT22;3896;48.758;8.888;2022-10-30T13:33:11;28.50;54.70
7708;DHT22;3896;48.758;8.888;2022-10-30T13:35:58;28.50;55.00
7708;DHT22;3896;48.758;8.888;2022-10-30T13:38:44;28.70;54.30
7708;DHT22;3896;48.758;8.888;2022-10-30T13:41:25;28.80;50.20
7708;DHT22;3896;48.758;8.888;2022-10-30T13:44:17;28.80;51.50
7708;DHT22;3896;48.758;8.888;2022-10-30T13:52:28;29.10;50.70
7708;DHT22;3896;48.758;8.888;2022-10-30T13:57:50;29.20;51.70
7708;DHT22;3896;48.758;8.888;2022-10-30T14:00:22;29.30;50.90
7708;DHT22;3896;48.758;8.888;2022-10-30T14:03:18;29.30;51.90
7708;DHT22;3896;48.758;8.888;2022-10-30T14:11:12;29.30;54.10
7708;DHT22;3896;48.758;8.888;2022-10-30T14:16:42;29.30;55.60
7708;DHT22;3896;48.758;8.888;2022-10-30T14:19:16;29.30;56.50
7708;DHT22;3896;48.758;8.888;2022-10-30T14:21:50;29.20;56.80
7708;DHT22;3896;48.758;8.888;2022-10-30T14:26:48;29.10;56.90
7708;DHT22;3896;48.758;8.888;2022-10-30T14:37:07;28.70;56.40
7708;DHT22;3896;48.758;8.888;2022-10-30T14:39:40;28.60;56.70
7708;DHT22;3896;48.758;8.888;2022-10-30T14:50:51;28.00;58.60
7708;DHT22;3896;48.758;8.888;2022-10-30T14:54:15;27.90;58.90
7708;DHT22;3896;48.758;8.888;2022-10-30T14:58:39;27.60;59.60
7708;DHT22;3896;48.758;8.888;2022-10-30T15:12:12;26.90;60.00
7708;DHT22;3896;48.758;8.888;2022-10-30T15:14:43;26.70;59.80
7708;DHT22;3896;48.758;8.888;2022-10-30T15:17:22;26.50;60.00
7708;DHT22;3896;48.758;8.888;2022-10-30T15:19:48;26.40;60.20
7708;DHT22;3896;48.758;8.888;2022-10-30T15:22:18;26.30;60.70
7708;DHT22;3896;48.758;8.888;2022-10-30T15:24:45;26.20;61.00
7708;DHT22;3896;48.758;8.888;2022-10-30T15:27:16;26.10;61.60
7708;DHT22;3896;48.758;8.888;2022-10-30T15:29:51;25.90;62.10
7708;DHT22;3896;48.758;8.888;2022-10-30T15:32:20;25.80;62.30
7708;DHT22;3896;48.758;8.888;2022-10-30T15:34:59;25.70;62.50
7708;DHT22;3896;48.758;8.888;2022-10-30T15:37:25;25.50;62.50
7708;DHT22;3896;48.758;8.888;2022-10-30T15:40:18;25.40;62.90
7708;DHT22;3896;48.758;8.888;2022-10-30T15:42:45;25.20;63.10
7708;DHT22;3896;48.758;8.888;2022-10-30T15:45:20;25.20;63.60
7708;DHT22;3896;48.758;8.888;2022-10-30T15:50:34;24.80;63.80
7708;DHT22;3896;48.758;8.888;2022-10-30T15:53:01;24.70;64.20
7708;DHT22;3896;48.758;8.888;2022-10-30T15:55:31;24.60;64.50
7708;DHT22;3896;48.758;8.888;2022-10-30T15:57:59;24.40;64.30
7708;DHT22;3896;48.758;8.888;2022-10-30T16:00:35;24.30;64.40
7708;DHT22;3896;48.758;8.888;2022-10-30T16:05:30;23.90;64.40
7708;DHT22;3896;48.758;8.888;2022-10-30T16:07:58;23.80;64.30
7708;DHT22;3896;48.758;8.888;2022-10-30T16:10:26;23.70;64.40
7708;DHT22;3896;48.758;8.888;2022-10-30T16:12:56;23.50;64.30
7708;DHT22;3896;48.758;8.888;2022-10-30T16:15:37;23.40;64.50
7708;DHT22;3896;48.758;8.888;2022-10-30T16:20:29;23.10;64.80
7708;DHT22;3896;48.758;8.888;2022-10-30T16:22:55;22.90;64.70
7708;DHT22;3896;48.758;8.888;2022-10-30T16:25:21;22.70;64.50
7708;DHT22;3896;48.758;8.888;2022-10-30T16:27:47;22.60;64.50
7708;DHT22;3896;48.758;8.888;2022-10-30T16:30:13;22.40;64.40
7708;DHT22;3896;48.758;8.888;2022-10-30T16:32:43;22.30;64.50
7708;DHT22;3896;48.758;8.888;2022-10-30T16:35:11;22.10;64.50
7708;DHT22;3896;48.758;8.888;2022-10-30T16:37:38;22.00;64.60
7708;DHT22;3896;48.758;8.888;2022-10-30T16:40:20;21.90;64.60
7708;DHT22;3896;48.758;8.888;2022-10-30T16:42:55;21.70;64.60
7708;DHT22;3896;48.758;8.888;2022-10-30T16:50:19;21.10;65.70
7708;DHT22;3896;48.758;8.888;2022-10-30T16:52:45;21.00;65.90
7708;DHT22;3896;48.758;8.888;2022-10-30T16:55:20;20.90;66.10
7708;DHT22;3896;48.758;8.888;2022-10-30T16:57:51;20.80;65.90
7708;DHT22;3896;48.758;8.888;2022-10-30T17:00:25;20.70;65.90
7708;DHT22;3896;48.758;8.888;2022-10-30T17:02:52;20.60;66.10
7708;DHT22;3896;48.758;8.888;2022-10-30T17:05:25;20.40;66.40
7708;DHT22;3896;48.758;8.888;2022-10-30T17:07:59;20.20;66.60
7708;DHT22;3896;48.758;8.888;2022-10-30T17:10:31;20.10;67.10
7708;DHT22;3896;48.758;8.888;2022-10-30T17:13:30;19.90;67.20
7708;DHT22;3896;48.758;8.888;2022-10-30T17:15:57;19.80;67.30
7708;DHT22;3896;48.758;8.888;2022-10-30T17:18:28;19.70;67.80
7708;DHT22;3896;48.758;8.888;2022-10-30T17:21:11;19.60;67.90
7708;DHT22;3896;48.758;8.888;2022-10-30T17:26:12;19.30;68.20
7708;DHT22;3896;48.758;8.888;2022-10-30T17:28:38;19.20;68.30
7708;DHT22;3896;48.758;8.888;2022-10-30T17:36:27;18.90;68.90
7708;DHT22;3896;48.758;8.888;2022-10-30T17:38:52;18.80;69.00
7708;DHT22;3896;48.758;8.888;2022-10-30T17:41:18;18.70;69.30
7708;DHT22;3896;48.758;8.888;2022-10-30T17:43:48;18.60;69.40
7708;DHT22;3896;48.758;8.888;2022-10-30T17:46:15;18.50;69.50
7708;DHT22;3896;48.758;8.888;2022-10-30T17:48:40;18.40;69.90
7708;DHT22;3896;48.758;8.888;2022-10-30T17:51:11;18.30;70.10
7708;DHT22;3896;48.758;8.888;2022-10-30T17:53:37;18.20;70.50
7708;DHT22;3896;48.758;8.888;2022-10-30T17:56:10;18.10;71.00
7708;DHT22;3896;48.758;8.888;2022-10-30T17:58:37;18.00;71.20
7708;DHT22;3896;48.758;8.888;2022-10-30T18:01:03;17.90;71.30
7708;DHT22;3896;48.758;8.888;2022-10-30T18:03:33;17.80;71.60
7708;DHT22;3896;48.758;8.888;2022-10-30T18:06:14;17.70;71.90
7708;DHT22;3896;48.758;8.888;2022-10-30T18:08:40;17.60;72.30
7708;DHT22;3896;48.758;8.888;2022-10-30T18:11:11;17.50;72.40
7708;DHT22;3896;48.758;8.888;2022-10-30T18:13:38;17.50;72.60
7708;DHT22;3896;48.758;8.888;2022-10-30T18:16:04;17.40;72.80
7708;DHT22;3896;48.758;8.888;2022-10-30T18:18:30;17.30;73.00
7708;DHT22;3896;48.758;8.888;2022-10-30T18:20:55;17.20;73.20
7708;DHT22;3896;48.758;8.888;2022-10-30T18:23:22;17.10;73.30
7708;DHT22;3896;48.758;8.888;2022-10-30T18:25:49;17.10;73.60
7708;DHT22;3896;48.758;8.888;2022-10-30T18:28:15;17.00;74.60
7708;DHT22;3896;48.758;8.888;2022-10-30T18:30:44;16.90;74.00
7708;DHT22;3896;48.758;8.888;2022-10-30T18:33:11;16.80;74.20
7708;DHT22;3896;48.758;8.888;2022-10-30T18:35:37;16.80;74.60
7708;DHT22;3896;48.758;8.888;2022-10-30T18:38:04;16.70;74.90
7708;DHT22;3896;48.758;8.888;2022-10-30T18:40:31;16.60;75.40
7708;DHT22;3896;48.758;8.888;2022-10-30T18:42:57;16.50;75.50
7708;DHT22;3896;48.758;8.888;2022-10-30T18:45:34;16.50;75.90
7708;DHT22;3896;48.758;8.888;2022-10-30T18:48:02;16.40;75.90